createdAt,value
2018-09-20T00:00:05.961Z,8.20
2018-09-20T00:02:34.948Z,7.53
2018-09-20T00:05:04.037Z,7.90
2018-09-20T00:07:33.989Z,8.00
2018-09-20T00:10:03.037Z,8.10
2018-09-20T00:12:32.005Z,7.70
2018-09-20T00:15:00.437Z,8.17
2018-09-20T00:17:28.842Z,7.87
2018-09-20T00:19:57.590Z,8.83
2018-09-20T00:22:25.629Z,8.07
2018-09-20T00:24:54.068Z,7.30
2018-09-20T00:27:22.268Z,7.77
2018-09-20T00:29:51.034Z,7.93
2018-09-20T00:32:19.859Z,7.50
2018-09-20T00:34:48.318Z,8.33
2018-09-20T00:37:17.103Z,7.43
2018-09-20T00:39:45.928Z,8.07
2018-09-20T00:42:14.744Z,7.57
2018-09-20T00:44:43.465Z,7.50
2018-09-20T00:47:12.264Z,7.47
2018-09-20T00:49:41.019Z,7.30
2018-09-20T00:52:09.767Z,7.13
2018-09-20T00:54:38.577Z,7.70
2018-09-20T00:57:06.405Z,7.40
2018-09-20T00:59:35.135Z,6.70
2018-09-20T01:02:03.796Z,7.33
2018-09-20T01:04:32.562Z,7.03
2018-09-20T01:07:01.301Z,7.30
2018-09-20T01:09:30.460Z,7.10
2018-09-20T01:11:58.920Z,6.80
2018-09-20T01:14:27.660Z,7.50
2018-09-20T01:16:56.446Z,6.90
2018-09-20T01:19:25.170Z,7.80
2018-09-20T01:21:53.664Z,7.20
2018-09-20T01:24:22.575Z,7.30
2018-09-20T01:26:51.029Z,6.90
2018-09-20T01:29:19.749Z,6.60
2018-09-20T01:31:49.047Z,7.57
2018-09-20T01:34:17.481Z,7.20
2018-09-20T01:36:45.875Z,7.23
2018-09-20T01:39:15.686Z,7.77
2018-09-20T01:41:44.199Z,7.67
2018-09-20T01:44:13.677Z,7.93
2018-09-20T01:46:42.634Z,8.10
2018-09-20T01:49:11.104Z,9.90
2018-09-20T01:51:40.213Z,9.80
2018-09-20T01:54:09.037Z,10.20
2018-09-20T01:56:37.479Z,8.87
2018-09-20T01:59:06.208Z,9.33
2018-09-20T02:01:34.602Z,10.10
2018-09-20T02:04:03.047Z,8.70
2018-09-20T02:06:31.837Z,9.10
2018-09-20T02:09:00.332Z,9.00
2018-09-20T02:11:29.119Z,7.70
2018-09-20T02:13:57.936Z,8.40
2018-09-20T02:16:26.720Z,8.53
2018-09-20T02:18:55.869Z,8.00
2018-09-20T02:21:24.597Z,8.70
2018-09-20T02:23:53.027Z,8.33
2018-09-20T02:26:21.862Z,7.93
2018-09-20T02:28:50.319Z,8.00
2018-09-20T02:31:19.139Z,8.20
2018-09-20T02:33:47.725Z,8.50
2018-09-20T02:36:16.220Z,8.10
2018-09-20T02:38:44.669Z,8.10
2018-09-20T02:41:13.126Z,9.80
2018-09-20T02:43:41.681Z,8.73
2018-09-20T02:46:10.437Z,8.63
2018-09-20T02:48:39.397Z,8.00
2018-09-20T02:51:08.307Z,8.70
2018-09-20T02:53:37.104Z,8.27
2018-09-20T02:56:05.513Z,7.77
2018-09-20T02:58:34.391Z,8.30
2018-09-20T03:01:03.235Z,8.10
2018-09-20T03:03:32.021Z,8.50
2018-09-20T03:06:01.073Z,8.37
2018-09-20T03:08:30.569Z,8.60
2018-09-20T03:10:59.336Z,8.97
2018-09-20T03:13:27.814Z,8.20
2018-09-20T03:15:55.946Z,9.07
2018-09-20T03:18:24.424Z,8.70
2018-09-20T03:20:52.890Z,8.63
2018-09-20T03:23:21.667Z,8.80
2018-09-20T03:25:50.413Z,8.10
2018-09-20T03:28:18.844Z,8.90
2018-09-20T03:30:47.893Z,8.50
2018-09-20T03:33:16.803Z,8.00
2018-09-20T03:35:45.566Z,8.57
2018-09-20T03:38:14.366Z,8.37
2018-09-20T03:40:43.718Z,7.93
2018-09-20T03:43:12.564Z,8.90
2018-09-20T03:45:41.383Z,9.07
2018-09-20T03:48:10.374Z,8.97
2018-09-20T03:50:39.304Z,20.70
2018-09-20T03:53:08.074Z,14.03
2018-09-20T03:55:36.666Z,9.40
2018-09-20T03:58:05.241Z,8.40
2018-09-20T04:00:33.706Z,9.33
2018-09-20T04:03:02.665Z,9.53
2018-09-20T04:05:31.473Z,9.00
2018-09-20T04:08:00.268Z,8.77
2018-09-20T04:10:28.411Z,9.20
2018-09-20T04:12:57.191Z,10.43
2018-09-20T04:15:25.360Z,9.90
2018-09-20T04:17:54.146Z,11.27
2018-09-20T04:20:22.225Z,10.10
2018-09-20T04:22:51.185Z,10.87
2018-09-20T04:25:20.010Z,10.50
2018-09-20T04:27:48.471Z,10.97
2018-09-20T04:30:17.299Z,11.73
2018-09-20T04:32:45.900Z,10.23
2018-09-20T04:35:14.048Z,10.97
2018-09-20T04:37:43.010Z,10.50
2018-09-20T04:40:11.831Z,10.17
2018-09-20T04:42:40.750Z,11.10
2018-09-20T04:45:09.537Z,11.00
2018-09-20T04:47:38.053Z,9.57
2018-09-20T04:50:06.706Z,13.17
2018-09-20T04:52:35.191Z,10.57
2018-09-20T04:55:03.323Z,12.30
2018-09-20T04:57:31.829Z,12.03
2018-09-20T05:00:00.783Z,10.40
2018-09-20T05:02:29.622Z,10.87
2018-09-20T05:04:57.831Z,10.00
2018-09-20T05:07:26.101Z,10.17
2018-09-20T05:09:54.991Z,11.80
2018-09-20T05:12:23.762Z,12.40
2018-09-20T05:14:52.632Z,11.10
2018-09-20T05:17:21.652Z,10.90
2018-09-20T05:19:50.487Z,11.70
2018-09-20T05:22:19.040Z,11.80
2018-09-20T05:24:47.896Z,11.40
2018-09-20T05:27:16.772Z,15.50
2018-09-20T05:29:45.637Z,12.03
2018-09-20T05:32:14.487Z,12.63
2018-09-20T05:34:43.267Z,14.07
2018-09-20T05:37:12.387Z,12.57
2018-09-20T05:39:40.549Z,12.90
2018-09-20T05:42:09.323Z,12.53
2018-09-20T05:44:38.163Z,13.00
2018-09-20T05:47:06.654Z,12.20
2018-09-20T05:49:34.789Z,12.77
2018-09-20T05:52:03.262Z,12.57
2018-09-20T05:54:32.113Z,12.70
2018-09-20T05:57:00.984Z,12.90
2018-09-20T05:59:29.440Z,10.90
2018-09-20T06:01:58.292Z,11.80
2018-09-20T06:04:26.763Z,12.20
2018-09-20T06:06:55.678Z,12.43
2018-09-20T06:09:24.122Z,13.13
2018-09-20T06:11:52.675Z,11.30
2018-09-20T06:14:21.462Z,12.20
2018-09-20T06:16:50.265Z,11.43
2018-09-20T06:19:18.765Z,12.60
2018-09-20T06:21:47.577Z,20.27
2018-09-20T06:24:16.608Z,11.67
2018-09-20T06:26:45.101Z,10.57
2018-09-20T06:29:13.576Z,10.30
2018-09-20T06:31:42.332Z,12.50
2018-09-20T06:34:11.177Z,15.83
2018-09-20T06:36:40.040Z,12.97
2018-09-20T06:39:10.042Z,12.60
2018-09-20T06:41:39.190Z,14.67
2018-09-20T06:44:08.052Z,10.93
2018-09-20T06:46:36.296Z,12.37
2018-09-20T06:49:04.767Z,14.83
2018-09-20T06:51:33.364Z,13.00
2018-09-20T06:54:01.544Z,12.77
2018-09-20T06:56:30.217Z,13.80
2018-09-20T06:58:59.213Z,13.60
2018-09-20T07:01:27.770Z,14.17
2018-09-20T07:03:56.237Z,13.90
2018-09-20T07:06:24.990Z,15.37
2018-09-20T07:08:53.474Z,22.77
2018-09-20T07:11:21.691Z,21.83
2018-09-20T07:13:50.516Z,23.07
2018-09-20T07:16:19.099Z,16.60
2018-09-20T07:18:47.900Z,14.70
2018-09-20T07:21:16.453Z,13.70
2018-09-20T07:23:44.974Z,12.90
2018-09-20T07:26:13.109Z,13.13
2018-09-20T07:28:41.899Z,10.73
2018-09-20T07:31:10.727Z,12.20
2018-09-20T07:33:39.160Z,9.97
2018-09-20T07:36:08.144Z,13.77
2018-09-20T07:38:36.976Z,17.00
2018-09-20T07:41:05.494Z,10.60
2018-09-20T07:43:34.407Z,14.67
2018-09-20T07:46:02.680Z,8.70
2018-09-20T07:48:31.204Z,9.00
2018-09-20T07:50:59.262Z,8.67
2018-09-20T07:53:27.736Z,8.70
2018-09-20T07:55:56.631Z,8.50
2018-09-20T07:58:25.468Z,8.27
2018-09-20T08:00:54.300Z,9.13
2018-09-20T08:03:23.248Z,7.27
2018-09-20T08:05:52.075Z,6.67
2018-09-20T08:08:20.180Z,6.10
2018-09-20T08:10:48.997Z,7.33
2018-09-20T08:13:17.825Z,8.10
2018-09-20T08:15:46.619Z,11.20
2018-09-20T08:18:15.186Z,6.53
2018-09-20T08:20:43.655Z,7.33
2018-09-20T08:23:12.052Z,6.57
2018-09-20T08:25:40.546Z,14.23
2018-09-20T08:28:09.484Z,6.50
2018-09-20T08:30:38.441Z,5.23
2018-09-20T08:33:07.002Z,4.90
2018-09-20T08:35:35.543Z,8.30
2018-09-20T08:38:03.681Z,5.67
2018-09-20T08:40:32.517Z,7.27
2018-09-20T08:43:01.222Z,5.60
2018-09-20T08:45:29.655Z,4.43
2018-09-20T08:47:58.424Z,5.33
2018-09-20T08:50:27.212Z,6.07
2018-09-20T08:52:56.029Z,5.90
2018-09-20T08:55:24.804Z,4.93
2018-09-20T08:57:56.248Z,4.93
2018-09-20T09:00:25.411Z,7.10
2018-09-20T09:02:54.227Z,4.63
2018-09-20T09:05:23.034Z,4.27
2018-09-20T09:07:51.504Z,4.30
2018-09-20T09:10:20.254Z,5.13
2018-09-20T09:12:49.046Z,6.03
2018-09-20T09:15:17.774Z,4.83
2018-09-20T09:17:46.315Z,5.60
2018-09-20T09:20:15.175Z,4.90
2018-09-20T09:22:44.187Z,4.80
2018-09-20T09:25:12.677Z,5.27
2018-09-20T09:27:41.504Z,4.10
2018-09-20T09:30:10.354Z,8.10
2018-09-20T09:32:39.180Z,4.50
2018-09-20T09:35:07.327Z,6.43
2018-09-20T09:37:36.134Z,4.57
2018-09-20T09:40:04.239Z,4.50
2018-09-20T09:42:33.055Z,4.57
2018-09-20T09:45:01.846Z,4.80
2018-09-20T09:47:30.619Z,4.40
2018-09-20T09:49:59.104Z,4.37
2018-09-20T09:52:27.678Z,6.63
2018-09-20T09:54:56.505Z,4.80
2018-09-20T09:57:25.444Z,4.30
2018-09-20T09:59:53.969Z,4.40
2018-09-20T10:02:22.913Z,4.63
2018-09-20T10:04:51.607Z,5.20
2018-09-20T10:07:20.119Z,4.97
2018-09-20T10:09:49.002Z,4.77
2018-09-20T10:12:17.801Z,4.40
2018-09-20T10:14:46.585Z,6.17
2018-09-20T10:17:14.698Z,4.23
2018-09-20T10:19:43.515Z,4.07
2018-09-20T10:22:12.324Z,3.93
2018-09-20T10:24:41.093Z,4.20
2018-09-20T10:27:09.901Z,4.80
2018-09-20T10:29:38.701Z,4.43
2018-09-20T10:32:07.513Z,4.40
2018-09-20T10:34:36.219Z,4.60
2018-09-20T10:37:05.020Z,3.93
2018-09-20T10:39:33.867Z,5.10
2018-09-20T10:42:02.624Z,4.77
2018-09-20T10:44:31.739Z,5.03
2018-09-20T10:47:00.511Z,4.43
2018-09-20T10:49:29.280Z,4.30
2018-09-20T10:51:57.721Z,4.77
2018-09-20T10:54:26.606Z,4.80
2018-09-20T10:56:55.578Z,6.10
2018-09-20T10:59:24.577Z,4.67
2018-09-20T11:01:53.068Z,4.03
2018-09-20T11:04:21.533Z,4.90
2018-09-20T11:06:50.016Z,4.80
2018-09-20T11:09:18.786Z,4.53
2018-09-20T11:11:47.555Z,4.40
2018-09-20T11:14:16.436Z,4.50
2018-09-20T11:16:45.169Z,4.70
2018-09-20T11:19:14.559Z,4.90
2018-09-20T11:21:43.019Z,4.90
2018-09-20T11:24:11.824Z,4.47
2018-09-20T11:26:40.583Z,4.67
2018-09-20T11:29:09.391Z,4.40
2018-09-20T11:31:37.810Z,5.47
2018-09-20T11:34:06.594Z,4.60
2018-09-20T11:36:35.108Z,3.90
2018-09-20T11:39:03.449Z,4.43
2018-09-20T11:41:32.250Z,4.97
2018-09-20T11:44:01.002Z,4.77
2018-09-20T11:46:29.613Z,5.10
2018-09-20T11:48:58.391Z,4.17
2018-09-20T11:51:27.252Z,5.67
2018-09-20T11:53:56.312Z,5.23
2018-09-20T11:56:25.450Z,4.37
2018-09-20T11:58:54.382Z,4.67
2018-09-20T12:01:23.073Z,4.57
2018-09-20T12:03:51.692Z,4.80
2018-09-20T12:06:20.752Z,4.40
2018-09-20T12:08:48.847Z,5.43
2018-09-20T12:11:16.969Z,5.10
2018-09-20T12:13:45.402Z,5.60
2018-09-20T12:16:14.326Z,5.10
2018-09-20T12:18:43.307Z,5.30
2018-09-20T12:21:12.199Z,5.17
2018-09-20T12:23:41.035Z,5.20
2018-09-20T12:26:09.809Z,6.17
2018-09-20T12:28:38.546Z,4.60
2018-09-20T12:31:06.743Z,5.07
2018-09-20T12:33:35.519Z,5.37
2018-09-20T12:36:03.994Z,5.60
2018-09-20T12:38:32.279Z,5.00
2018-09-20T12:41:01.028Z,6.00
2018-09-20T12:43:29.414Z,5.67
2018-09-20T12:45:57.908Z,5.00
2018-09-20T12:48:26.623Z,5.20
2018-09-20T12:50:55.371Z,6.17
2018-09-20T12:53:23.822Z,4.97
2018-09-20T12:55:52.304Z,5.27
2018-09-20T12:58:25.116Z,5.60
2018-09-20T13:00:53.956Z,5.27
2018-09-20T13:03:22.362Z,5.43
2018-09-20T13:05:50.828Z,5.00
2018-09-20T13:08:19.751Z,4.80
2018-09-20T13:10:48.490Z,5.53
2018-09-20T13:13:17.240Z,5.70
2018-09-20T13:15:46.005Z,5.20
2018-09-20T13:18:14.457Z,5.30
2018-09-20T13:20:43.005Z,5.70
2018-09-20T13:23:12.220Z,5.23
2018-09-20T13:25:41.143Z,6.57
2018-09-20T13:28:10.407Z,5.40
2018-09-20T13:30:39.405Z,5.50
2018-09-20T13:33:07.584Z,5.80
2018-09-20T13:35:36.388Z,5.17
2018-09-20T13:38:04.534Z,6.30
2018-09-20T13:40:33.381Z,5.37
2018-09-20T13:43:02.284Z,5.33
2018-09-20T13:45:30.486Z,5.23
2018-09-20T13:47:58.948Z,5.80
2018-09-20T13:50:27.427Z,5.90
2018-09-20T13:52:56.292Z,5.50
2018-09-20T13:55:25.038Z,4.73
2018-09-20T13:57:53.585Z,5.30
2018-09-20T14:00:22.148Z,4.93
2018-09-20T14:02:50.965Z,5.80
2018-09-20T14:05:19.568Z,5.80
2018-09-20T14:07:47.691Z,5.77
2018-09-20T14:10:16.159Z,5.57
2018-09-20T14:12:44.383Z,4.80
2018-09-20T14:15:13.226Z,5.70
2018-09-20T14:17:41.634Z,6.00
2018-09-20T14:20:09.751Z,5.60
2018-09-20T14:22:38.368Z,5.40
2018-09-20T14:25:06.580Z,5.47
2018-09-20T14:27:35.926Z,5.70
2018-09-20T14:30:04.024Z,5.30
2018-09-20T14:32:32.775Z,5.37
2018-09-20T14:35:01.263Z,5.30
2018-09-20T14:37:30.144Z,5.67
2018-09-20T14:39:58.757Z,5.80
2018-09-20T14:42:28.062Z,5.70
2018-09-20T14:44:57.139Z,5.43
2018-09-20T14:47:25.700Z,4.80
2018-09-20T14:49:54.408Z,5.10
2018-09-20T14:52:22.922Z,5.00
2018-09-20T14:54:52.380Z,5.33
2018-09-20T14:57:21.047Z,5.60
2018-09-20T14:59:50.083Z,5.40
2018-09-20T15:02:19.067Z,5.80
2018-09-20T15:04:48.477Z,5.73
2018-09-20T15:07:17.387Z,5.50
2018-09-20T15:09:46.533Z,5.37
2018-09-20T15:12:15.140Z,6.30
2018-09-20T15:14:44.338Z,5.10
2018-09-20T15:17:12.869Z,4.70
2018-09-20T15:19:42.399Z,5.47
2018-09-20T15:22:11.213Z,5.83
2018-09-20T15:24:40.406Z,4.83
2018-09-20T15:27:09.334Z,5.80
2018-09-20T15:29:37.950Z,4.70
2018-09-20T15:32:06.615Z,8.57
2018-09-20T15:34:35.570Z,7.03
2018-09-20T15:37:04.538Z,5.23
2018-09-20T15:39:33.260Z,6.10
2018-09-20T15:42:02.117Z,6.40
2018-09-20T15:44:30.973Z,5.40
2018-09-20T15:46:59.795Z,4.80
2018-09-20T15:49:28.481Z,5.50
2018-09-20T15:51:57.266Z,5.07
2018-09-20T15:54:25.764Z,5.60
2018-09-20T15:56:54.664Z,5.27
2018-09-20T15:59:23.068Z,5.70
2018-09-20T16:01:51.386Z,5.30
2018-09-20T16:04:20.160Z,5.33
2018-09-20T16:06:48.783Z,5.33
2018-09-20T16:09:17.283Z,6.20
2018-09-20T16:11:46.104Z,6.77
2018-09-20T16:14:17.188Z,6.67
2018-09-20T16:16:45.625Z,7.23
2018-09-20T16:19:14.432Z,6.50
2018-09-20T16:21:44.088Z,7.87
2018-09-20T16:24:12.893Z,6.60
2018-09-20T16:26:41.113Z,8.70
2018-09-20T16:29:26.410Z,6.50
2018-09-20T16:32:10.433Z,7.00
2018-09-20T16:34:55.722Z,7.73
2018-09-20T16:37:39.939Z,6.73
2018-09-20T16:40:10.072Z,7.63
2018-09-20T16:42:39.567Z,6.70
2018-09-20T16:45:07.973Z,6.37
2018-09-20T16:47:37.346Z,9.20
2018-09-20T16:50:05.532Z,7.97
2018-09-20T16:52:34.344Z,6.10
2018-09-20T16:55:03.163Z,7.30
2018-09-20T16:57:31.602Z,8.07
2018-09-20T17:00:00.348Z,7.50
2018-09-20T17:02:29.264Z,64.63
2018-09-20T17:04:58.646Z,71.87
2018-09-20T17:07:27.218Z,12.83
2018-09-20T17:09:57.089Z,8.83
2018-09-20T17:12:25.447Z,11.20
2018-09-20T17:14:53.890Z,7.90
2018-09-20T17:17:22.973Z,9.87
2018-09-20T17:19:51.882Z,8.90
2018-09-20T17:22:20.513Z,8.53
2018-09-20T17:24:49.145Z,7.93
2018-09-20T17:27:17.870Z,8.83
2018-09-20T17:29:46.708Z,11.30
2018-09-20T17:32:15.487Z,11.03
2018-09-20T17:34:44.148Z,14.73
2018-09-20T17:37:13.162Z,10.00
2018-09-20T17:39:42.300Z,10.77
2018-09-20T17:42:11.158Z,12.93
2018-09-20T17:44:39.905Z,11.10
2018-09-20T17:47:09.304Z,12.20
2018-09-20T17:49:37.915Z,11.30
2018-09-20T17:52:07.280Z,11.40
2018-09-20T17:54:35.864Z,22.33
2018-09-20T17:57:04.155Z,10.93
2018-09-20T17:59:33.098Z,10.20
2018-09-20T18:02:01.547Z,13.50
2018-09-20T18:04:30.365Z,13.90
2018-09-20T18:06:59.092Z,12.90
2018-09-20T18:09:27.683Z,11.10
2018-09-20T18:11:56.584Z,10.10
2018-09-20T18:14:25.051Z,10.33
2018-09-20T18:16:53.935Z,10.60
2018-09-20T18:19:22.052Z,11.00
2018-09-20T18:21:51.066Z,10.57
2018-09-20T18:24:20.144Z,18.50
2018-09-20T18:26:49.383Z,12.00
2018-09-20T18:29:18.202Z,12.60
2018-09-20T18:31:46.977Z,11.57
2018-09-20T18:34:15.893Z,13.60
2018-09-20T18:36:44.848Z,13.57
2018-09-20T18:39:15.103Z,14.60
2018-09-20T18:41:45.482Z,14.23
2018-09-20T18:44:13.803Z,14.17
2018-09-20T18:46:42.396Z,13.53
2018-09-20T18:49:11.298Z,13.97
2018-09-20T18:51:40.704Z,13.53
2018-09-20T18:54:09.421Z,13.53
2018-09-20T18:56:38.544Z,17.63
2018-09-20T18:59:07.421Z,15.23
2018-09-20T19:01:36.372Z,14.23
2018-09-20T19:04:04.829Z,14.70
2018-09-20T19:06:33.748Z,14.30
2018-09-20T19:09:02.398Z,16.67
2018-09-20T19:11:31.373Z,26.80
2018-09-20T19:14:00.150Z,21.83
2018-09-20T19:16:28.902Z,16.70
2018-09-20T19:18:57.319Z,17.90
2018-09-20T19:21:26.425Z,15.10
2018-09-20T19:23:54.964Z,14.60
2018-09-20T19:26:23.897Z,16.30
2018-09-20T19:28:52.954Z,13.13
2018-09-20T19:31:21.590Z,14.30
2018-09-20T19:33:49.999Z,16.67
2018-09-20T19:36:18.804Z,22.30
2018-09-20T19:38:47.219Z,16.97
2018-09-20T19:41:15.835Z,16.27
2018-09-20T19:43:44.367Z,16.80
2018-09-20T19:46:12.767Z,15.97
2018-09-20T19:48:41.556Z,16.13
2018-09-20T19:51:10.369Z,17.60
2018-09-20T19:53:39.099Z,17.43
2018-09-20T19:56:08.191Z,16.70
2018-09-20T19:58:36.632Z,16.40
2018-09-20T20:01:05.232Z,16.40
2018-09-20T20:03:33.988Z,15.97
2018-09-20T20:06:02.386Z,17.00
2018-09-20T20:08:31.144Z,16.63
2018-09-20T20:10:59.964Z,16.50
2018-09-20T20:13:29.112Z,16.10
2018-09-20T20:15:57.485Z,15.93
2018-09-20T20:18:26.334Z,14.57
2018-09-20T20:20:55.193Z,17.30
2018-09-20T20:23:23.980Z,17.47
2018-09-20T20:25:52.799Z,16.20
2018-09-20T20:28:21.514Z,15.03
2018-09-20T20:30:50.070Z,14.87
2018-09-20T20:33:18.969Z,18.03
2018-09-20T20:35:47.079Z,16.30
2018-09-20T20:38:15.786Z,16.23
2018-09-20T20:40:44.776Z,15.40
2018-09-20T20:43:13.566Z,16.23
2018-09-20T20:45:42.403Z,16.53
2018-09-20T20:48:10.835Z,16.17
2018-09-20T20:50:39.709Z,15.73
2018-09-20T20:53:08.242Z,14.73
2018-09-20T20:55:37.142Z,13.90
2018-09-20T20:58:06.063Z,16.90
2018-09-20T21:00:34.830Z,14.97
2018-09-20T21:03:03.650Z,15.27
2018-09-20T21:05:32.469Z,14.90
2018-09-20T21:08:01.460Z,15.30
2018-09-20T21:10:29.913Z,14.73
2018-09-20T21:12:58.389Z,15.10
2018-09-20T21:16:01.957Z,15.13
2018-09-20T21:18:30.780Z,14.80
2018-09-20T21:20:59.657Z,13.90
2018-09-20T21:23:28.552Z,14.07
2018-09-20T21:25:57.384Z,14.43
2018-09-20T21:28:25.922Z,15.20
2018-09-20T21:30:54.800Z,14.70
2018-09-20T21:33:23.786Z,13.73
2018-09-20T21:35:51.931Z,13.50
2018-09-20T21:38:20.436Z,13.80
2018-09-20T21:40:49.248Z,14.20
2018-09-20T21:43:18.072Z,14.60
2018-09-20T21:45:46.916Z,14.23
2018-09-20T21:48:15.512Z,13.83
2018-09-20T21:50:44.211Z,12.87
2018-09-20T21:53:12.689Z,13.90
2018-09-20T21:55:41.461Z,15.70
2018-09-20T21:58:10.121Z,13.67
2018-09-20T22:00:38.338Z,13.67
2018-09-20T22:03:07.171Z,12.93
2018-09-20T22:05:36.040Z,12.43
2018-09-20T22:08:04.516Z,15.10
2018-09-20T22:10:32.858Z,13.17
2018-09-20T22:13:01.900Z,14.23
2018-09-20T22:15:30.747Z,12.70
2018-09-20T22:17:59.661Z,11.90
2018-09-20T22:20:30.331Z,14.10
2018-09-20T22:22:58.452Z,13.43
2018-09-20T22:25:27.182Z,14.10
2018-09-20T22:27:55.650Z,12.03
2018-09-20T22:30:24.441Z,13.10
2018-09-20T22:32:53.257Z,12.53
2018-09-20T22:35:21.606Z,14.10
2018-09-20T22:37:50.466Z,12.30
2018-09-20T22:40:19.285Z,11.53
2018-09-20T22:42:47.821Z,12.40
2018-09-20T22:45:16.276Z,12.40
2018-09-20T22:47:45.122Z,11.60
2018-09-20T22:50:13.916Z,11.60
2018-09-20T22:52:42.372Z,12.30
2018-09-20T22:55:11.147Z,12.40
2018-09-20T22:57:39.611Z,12.80
2018-09-20T23:00:07.775Z,12.37
2018-09-20T23:02:36.627Z,12.57
2018-09-20T23:05:05.002Z,12.90
2018-09-20T23:07:33.899Z,13.03
2018-09-20T23:10:02.463Z,12.60
2018-09-20T23:12:31.327Z,12.10
2018-09-20T23:15:00.199Z,12.97
2018-09-20T23:17:29.107Z,12.53
2018-09-20T23:19:57.943Z,12.23
2018-09-20T23:22:26.715Z,17.47
2018-09-20T23:24:55.533Z,13.63
2018-09-20T23:27:23.944Z,13.60
2018-09-20T23:29:52.813Z,11.50
2018-09-20T23:32:21.328Z,12.80
2018-09-20T23:34:49.774Z,12.90
2018-09-20T23:37:18.636Z,12.47
2018-09-20T23:39:47.104Z,12.03
2018-09-20T23:42:15.552Z,12.40
2018-09-20T23:44:44.465Z,11.70
2018-09-20T23:47:13.297Z,12.13
2018-09-20T23:49:42.068Z,12.43
2018-09-20T23:52:10.265Z,12.20
2018-09-20T23:54:38.924Z,11.97
2018-09-20T23:57:07.730Z,11.53
2018-09-20T23:59:36.956Z,11.00
